sensor_id;sensor_type;location;lat;lon;timestamp;pressure;altitude;pressure_sealevel;temperature;humidity
7834;BME280;3962;42.696;23.354;2022-10-31T00:00:29;95697.09;;;14.59;59.89
7834;BME280;3962;42.696;23.354;2022-10-31T00:02:56;95688.41;;;14.57;59.89
7834;BME280;3962;42.696;23.354;2022-10-31T00:05:24;95691.88;;;14.50;60.46
7834;BME280;3962;42.696;23.354;2022-10-31T00:07:52;95697.41;;;14.48;60.91
7834;BME280;3962;42.696;23.354;2022-10-31T00:10:19;95698.38;;;14.47;60.49
7834;BME280;3962;42.696;23.354;2022-10-31T00:12:46;95692.22;;;14.47;60.31
7834;BME280;3962;42.696;23.354;2022-10-31T00:15:14;95686.19;;;14.45;60.86
7834;BME280;3962;42.696;23.354;2022-10-31T00:17:41;95689.50;;;14.39;61.06
7834;BME280;3962;42.696;23.354;2022-10-31T00:20:08;95696.84;;;14.37;61.13
7834;BME280;3962;42.696;23.354;2022-10-31T00:22:37;95692.66;;;14.34;61.39
7834;BME280;3962;42.696;23.354;2022-10-31T00:25:04;95694.47;;;14.34;61.49
7834;BME280;3962;42.696;23.354;2022-10-31T00:27:31;95687.44;;;14.33;61.63
7834;BME280;3962;42.696;23.354;2022-10-31T00:29:57;95684.41;;;14.28;61.25
7834;BME280;3962;42.696;23.354;2022-10-31T00:32:28;95689.09;;;14.26;61.96
7834;BME280;3962;42.696;23.354;2022-10-31T00:34:55;95685.38;;;14.19;62.60
7834;BME280;3962;42.696;23.354;2022-10-31T00:37:23;95687.28;;;14.09;62.45
7834;BME280;3962;42.696;23.354;2022-10-31T00:39:51;95682.63;;;14.11;62.74
7834;BME280;3962;42.696;23.354;2022-10-31T00:42:18;95685.13;;;14.12;63.03
7834;BME280;3962;42.696;23.354;2022-10-31T00:44:44;95676.75;;;14.07;62.74
7834;BME280;3962;42.696;23.354;2022-10-31T00:47:11;95684.56;;;14.01;63.73
7834;BME280;3962;42.696;23.354;2022-10-31T00:49:39;95681.91;;;14.01;63.54
7834;BME280;3962;42.696;23.354;2022-10-31T00:52:06;95686.72;;;13.97;63.45
7834;BME280;3962;42.696;23.354;2022-10-31T00:54:33;95688.03;;;13.93;63.46
7834;BME280;3962;42.696;23.354;2022-10-31T00:57:01;95688.34;;;13.90;64.07
7834;BME280;3962;42.696;23.354;2022-10-31T00:59:31;95684.66;;;13.91;64.07
7834;BME280;3962;42.696;23.354;2022-10-31T01:01:58;95681.66;;;13.86;64.19
7834;BME280;3962;42.696;23.354;2022-10-31T01:04:25;95690.97;;;13.82;64.14
7834;BME280;3962;42.696;23.354;2022-10-31T01:06:53;95697.47;;;13.54;64.48
7834;BME280;3962;42.696;23.354;2022-10-31T01:09:20;95692.53;;;13.24;65.09
7834;BME280;3962;42.696;23.354;2022-10-31T01:11:46;95698.00;;;13.05;66.36
7834;BME280;3962;42.696;23.354;2022-10-31T01:14:15;95698.44;;;12.83;66.98
7834;BME280;3962;42.696;23.354;2022-10-31T01:16:41;95698.25;;;12.67;67.87
7834;BME280;3962;42.696;23.354;2022-10-31T01:19:10;95697.91;;;12.53;68.57
7834;BME280;3962;42.696;23.354;2022-10-31T01:21:38;95699.34;;;12.47;68.58
7834;BME280;3962;42.696;23.354;2022-10-31T01:24:07;95698.84;;;12.34;68.86
7834;BME280;3962;42.696;23.354;2022-10-31T01:26:34;95693.59;;;12.15;68.83
7834;BME280;3962;42.696;23.354;2022-10-31T01:29:03;95698.69;;;12.09;69.38
7834;BME280;3962;42.696;23.354;2022-10-31T01:31:34;95699.44;;;11.92;70.32
7834;BME280;3962;42.696;23.354;2022-10-31T01:34:04;95710.31;;;11.62;71.01
7834;BME280;3962;42.696;23.354;2022-10-31T01:36:34;95709.88;;;11.47;71.78
7834;BME280;3962;42.696;23.354;2022-10-31T01:39:04;95715.63;;;11.43;71.73
7834;BME280;3962;42.696;23.354;2022-10-31T01:41:33;95708.91;;;11.39;71.97
7834;BME280;3962;42.696;23.354;2022-10-31T01:44:02;95709.06;;;11.37;72.59
7834;BME280;3962;42.696;23.354;2022-10-31T01:46:35;95715.25;;;11.38;73.08
7834;BME280;3962;42.696;23.354;2022-10-31T01:49:09;95717.03;;;11.37;72.35
7834;BME280;3962;42.696;23.354;2022-10-31T01:51:41;95713.41;;;11.38;72.43
7834;BME280;3962;42.696;23.354;2022-10-31T01:54:12;95709.63;;;11.41;72.86
7834;BME280;3962;42.696;23.354;2022-10-31T01:56:43;95713.69;;;11.45;72.42
7834;BME280;3962;42.696;23.354;2022-10-31T01:59:14;95711.84;;;11.45;72.61
7834;BME280;3962;42.696;23.354;2022-10-31T02:01:43;95703.16;;;11.43;72.69
7834;BME280;3962;42.696;23.354;2022-10-31T02:04:10;95702.06;;;11.46;72.96
7834;BME280;3962;42.696;23.354;2022-10-31T02:06:43;95702.47;;;11.60;72.90
7834;BME280;3962;42.696;23.354;2022-10-31T02:09:12;95694.03;;;11.65;72.48
7834;BME280;3962;42.696;23.354;2022-10-31T02:11:41;95698.25;;;11.67;71.91
7834;BME280;3962;42.696;23.354;2022-10-31T02:14:11;95699.22;;;11.66;72.38
7834;BME280;3962;42.696;23.354;2022-10-31T02:16:40;95694.47;;;11.60;72.30
7834;BME280;3962;42.696;23.354;2022-10-31T02:19:11;95699.06;;;11.68;72.82
7834;BME280;3962;42.696;23.354;2022-10-31T02:21:46;95704.84;;;11.63;71.96
7834;BME280;3962;42.696;23.354;2022-10-31T02:24:40;95711.00;;;11.54;72.40
7834;BME280;3962;42.696;23.354;2022-10-31T02:27:32;95723.38;;;11.46;73.33
7834;BME280;3962;42.696;23.354;2022-10-31T02:30:06;95718.72;;;11.38;73.90
7834;BME280;3962;42.696;23.354;2022-10-31T02:32:54;95721.25;;;11.40;73.51
7834;BME280;3962;42.696;23.354;2022-10-31T02:35:33;95718.28;;;11.43;74.14
7834;BME280;3962;42.696;23.354;2022-10-31T02:38:13;95722.81;;;11.42;74.14
7834;BME280;3962;42.696;23.354;2022-10-31T02:40:47;95727.00;;;11.45;73.81
7834;BME280;3962;42.696;23.354;2022-10-31T02:43:20;95729.53;;;11.37;74.00
7834;BME280;3962;42.696;23.354;2022-10-31T02:45:50;95736.97;;;11.33;74.45
7834;BME280;3962;42.696;23.354;2022-10-31T02:48:23;95724.91;;;11.29;74.70
7834;BME280;3962;42.696;23.354;2022-10-31T02:50:56;95728.69;;;11.36;75.25
7834;BME280;3962;42.696;23.354;2022-10-31T02:53:23;95728.56;;;11.38;74.93
7834;BME280;3962;42.696;23.354;2022-10-31T02:55:57;95729.38;;;11.38;75.31
7834;BME280;3962;42.696;23.354;2022-10-31T02:58:27;95728.41;;;11.39;75.08
7834;BME280;3962;42.696;23.354;2022-10-31T03:01:07;95732.91;;;11.39;74.96
7834;BME280;3962;42.696;23.354;2022-10-31T03:03:45;95745.50;;;11.46;75.30
7834;BME280;3962;42.696;23.354;2022-10-31T03:06:17;95744.50;;;11.47;74.92
7834;BME280;3962;42.696;23.354;2022-10-31T03:08:50;95736.69;;;11.46;75.34
7834;BME280;3962;42.696;23.354;2022-10-31T03:11:24;95741.28;;;11.44;74.98
7834;BME280;3962;42.696;23.354;2022-10-31T03:13:59;95745.81;;;11.53;75.26
7834;BME280;3962;42.696;23.354;2022-10-31T03:16:33;95744.13;;;11.61;74.60
7834;BME280;3962;42.696;23.354;2022-10-31T03:19:09;95743.28;;;11.61;74.90
7834;BME280;3962;42.696;23.354;2022-10-31T03:21:41;95743.44;;;11.59;75.27
7834;BME280;3962;42.696;23.354;2022-10-31T03:24:10;95743.44;;;11.59;75.24
7834;BME280;3962;42.696;23.354;2022-10-31T03:26:41;95741.72;;;11.68;75.04
7834;BME280;3962;42.696;23.354;2022-10-31T03:29:12;95745.25;;;11.68;74.31
7834;BME280;3962;42.696;23.354;2022-10-31T03:31:44;95744.69;;;11.65;74.66
7834;BME280;3962;42.696;23.354;2022-10-31T03:34:16;95756.19;;;11.65;74.82
7834;BME280;3962;42.696;23.354;2022-10-31T03:36:45;95750.69;;;11.67;74.64
7834;BME280;3962;42.696;23.354;2022-10-31T03:39:17;95754.91;;;11.69;75.01
7834;BME280;3962;42.696;23.354;2022-10-31T03:41:50;95761.34;;;11.67;74.95
7834;BME280;3962;42.696;23.354;2022-10-31T03:44:20;95758.69;;;11.67;74.93
7834;BME280;3962;42.696;23.354;2022-10-31T03:46:48;95762.34;;;11.66;74.61
7834;BME280;3962;42.696;23.354;2022-10-31T03:49:17;95766.44;;;11.60;75.26
7834;BME280;3962;42.696;23.354;2022-10-31T03:51:48;95769.94;;;11.61;74.90
7834;BME280;3962;42.696;23.354;2022-10-31T03:54:22;95761.91;;;11.51;75.20
7834;BME280;3962;42.696;23.354;2022-10-31T03:56:53;95755.88;;;11.40;75.56
7834;BME280;3962;42.696;23.354;2022-10-31T03:59:25;95771.75;;;11.41;75.57
7834;BME280;3962;42.696;23.354;2022-10-31T04:01:57;95762.59;;;11.44;75.94
7834;BME280;3962;42.696;23.354;2022-10-31T04:04:27;95773.69;;;11.49;75.88
7834;BME280;3962;42.696;23.354;2022-10-31T04:06:56;95773.69;;;11.49;75.82
7834;BME280;3962;42.696;23.354;2022-10-31T04:09:26;95771.72;;;11.51;75.78
7834;BME280;3962;42.696;23.354;2022-10-31T04:11:55;95774.56;;;11.59;75.63
7834;BME280;3962;42.696;23.354;2022-10-31T04:14:24;95785.66;;;11.64;75.51
7834;BME280;3962;42.696;23.354;2022-10-31T04:16:52;95785.09;;;11.70;75.41
7834;BME280;3962;42.696;23.354;2022-10-31T04:19:19;95784.66;;;11.74;75.77
7834;BME280;3962;42.696;23.354;2022-10-31T04:21:47;95778.91;;;11.79;75.32
7834;BME280;3962;42.696;23.354;2022-10-31T04:24:14;95783.09;;;11.81;75.23
7834;BME280;3962;42.696;23.354;2022-10-31T04:26:41;95789.81;;;11.85;75.53
7834;BME280;3962;42.696;23.354;2022-10-31T04:29:08;95780.84;;;11.86;75.33
7834;BME280;3962;42.696;23.354;2022-10-31T04:31:35;95784.06;;;11.90;75.13
7834;BME280;3962;42.696;23.354;2022-10-31T04:34:03;95786.59;;;11.91;74.45
7834;BME280;3962;42.696;23.354;2022-10-31T04:36:30;95781.38;;;11.90;74.76
7834;BME280;3962;42.696;23.354;2022-10-31T04:38:58;95781.00;;;11.85;74.70
7834;BME280;3962;42.696;23.354;2022-10-31T04:41:25;95783.66;;;11.75;74.93
7834;BME280;3962;42.696;23.354;2022-10-31T04:43:52;95782.69;;;11.67;75.14
7834;BME280;3962;42.696;23.354;2022-10-31T04:46:19;95801.22;;;11.68;75.44
7834;BME280;3962;42.696;23.354;2022-10-31T04:48:47;95792.66;;;11.65;75.73
7834;BME280;3962;42.696;23.354;2022-10-31T04:51:18;95795.06;;;11.58;75.61
7834;BME280;3962;42.696;23.354;2022-10-31T04:53:44;95796.00;;;11.48;75.88
7834;BME280;3962;42.696;23.354;2022-10-31T04:56:14;95800.31;;;11.39;75.97
7834;BME280;3962;42.696;23.354;2022-10-31T04:58:40;95796.41;;;11.34;76.90
7834;BME280;3962;42.696;23.354;2022-10-31T05:01:10;95802.03;;;11.31;76.81
7834;BME280;3962;42.696;23.354;2022-10-31T05:03:37;95805.81;;;11.28;76.79
7834;BME280;3962;42.696;23.354;2022-10-31T05:06:05;95799.34;;;11.21;77.31
7834;BME280;3962;42.696;23.354;2022-10-31T05:08:32;95808.19;;;11.22;77.39
7834;BME280;3962;42.696;23.354;2022-10-31T05:10:59;95808.59;;;11.27;77.09
7834;BME280;3962;42.696;23.354;2022-10-31T05:13:28;95809.84;;;11.32;76.94
7834;BME280;3962;42.696;23.354;2022-10-31T05:15:55;95808.31;;;11.39;77.59
7834;BME280;3962;42.696;23.354;2022-10-31T05:18:22;95821.22;;;11.44;76.67
7834;BME280;3962;42.696;23.354;2022-10-31T05:20:49;95821.94;;;11.46;76.94
7834;BME280;3962;42.696;23.354;2022-10-31T05:23:16;95826.28;;;11.37;76.60
7834;BME280;3962;42.696;23.354;2022-10-31T05:25:43;95827.25;;;11.27;77.28
7834;BME280;3962;42.696;23.354;2022-10-31T05:28:09;95820.09;;;11.18;77.06
7834;BME280;3962;42.696;23.354;2022-10-31T05:30:38;95827.66;;;11.22;77.78
7834;BME280;3962;42.696;23.354;2022-10-31T05:33:04;95827.41;;;11.25;77.27
7834;BME280;3962;42.696;23.354;2022-10-31T05:35:32;95826.53;;;11.25;77.66
7834;BME280;3962;42.696;23.354;2022-10-31T05:37:59;95838.88;;;11.26;77.08
7834;BME280;3962;42.696;23.354;2022-10-31T05:40:27;95828.38;;;11.15;77.18
7834;BME280;3962;42.696;23.354;2022-10-31T05:42:56;95840.94;;;11.13;77.26
7834;BME280;3962;42.696;23.354;2022-10-31T05:45:24;95834.66;;;11.14;78.15
7834;BME280;3962;42.696;23.354;2022-10-31T05:47:53;95832.84;;;11.24;77.41
7834;BME280;3962;42.696;23.354;2022-10-31T05:50:20;95845.06;;;11.26;76.86
7834;BME280;3962;42.696;23.354;2022-10-31T05:52:53;95840.00;;;11.23;77.03
7834;BME280;3962;42.696;23.354;2022-10-31T05:55:20;95841.97;;;11.31;77.16
7834;BME280;3962;42.696;23.354;2022-10-31T05:57:47;95844.06;;;11.18;77.05
7834;BME280;3962;42.696;23.354;2022-10-31T06:00:14;95842.25;;;11.18;77.83
7834;BME280;3962;42.696;23.354;2022-10-31T06:02:40;95843.06;;;11.09;76.97
7834;BME280;3962;42.696;23.354;2022-10-31T06:05:09;95855.72;;;11.26;77.37
7834;BME280;3962;42.696;23.354;2022-10-31T06:07:36;95855.84;;;11.25;76.95
7834;BME280;3962;42.696;23.354;2022-10-31T06:10:04;95851.09;;;11.28;76.62
7834;BME280;3962;42.696;23.354;2022-10-31T06:12:31;95850.66;;;11.33;77.08
7834;BME280;3962;42.696;23.354;2022-10-31T06:15:03;95862.03;;;11.44;76.20
7834;BME280;3962;42.696;23.354;2022-10-31T06:17:30;95868.94;;;11.56;76.16
7834;BME280;3962;42.696;23.354;2022-10-31T06:19:57;95869.50;;;11.60;75.75
7834;BME280;3962;42.696;23.354;2022-10-31T06:22:25;95879.63;;;11.66;74.99
7834;BME280;3962;42.696;23.354;2022-10-31T06:24:52;95880.47;;;11.76;75.57
7834;BME280;3962;42.696;23.354;2022-10-31T06:27:19;95890.47;;;11.93;75.15
7834;BME280;3962;42.696;23.354;2022-10-31T06:29:46;95887.75;;;12.02;74.65
7834;BME280;3962;42.696;23.354;2022-10-31T06:32:14;95892.41;;;12.10;73.70
7834;BME280;3962;42.696;23.354;2022-10-31T06:34:41;95892.81;;;12.15;73.60
7834;BME280;3962;42.696;23.354;2022-10-31T06:37:09;95882.69;;;12.28;73.93
7834;BME280;3962;42.696;23.354;2022-10-31T06:39:38;95890.53;;;12.39;73.02
7834;BME280;3962;42.696;23.354;2022-10-31T06:42:05;95893.47;;;12.45;73.33
7834;BME280;3962;42.696;23.354;2022-10-31T06:44:32;95890.50;;;12.58;73.15
7834;BME280;3962;42.696;23.354;2022-10-31T06:46:59;95892.53;;;12.73;71.92
7834;BME280;3962;42.696;23.354;2022-10-31T06:49:26;95898.72;;;12.83;72.01
7834;BME280;3962;42.696;23.354;2022-10-31T06:51:53;95887.72;;;12.96;72.17
7834;BME280;3962;42.696;23.354;2022-10-31T06:54:20;95899.75;;;13.09;71.69
7834;BME280;3962;42.696;23.354;2022-10-31T06:56:48;95888.59;;;13.23;71.45
7834;BME280;3962;42.696;23.354;2022-10-31T06:59:15;95903.84;;;13.31;70.53
7834;BME280;3962;42.696;23.354;2022-10-31T07:01:42;95904.25;;;13.36;70.75
7834;BME280;3962;42.696;23.354;2022-10-31T07:04:09;95897.78;;;13.38;70.39
7834;BME280;3962;42.696;23.354;2022-10-31T07:06:36;95900.25;;;13.49;70.50
7834;BME280;3962;42.696;23.354;2022-10-31T07:09:03;95887.56;;;13.51;70.19
7834;BME280;3962;42.696;23.354;2022-10-31T07:11:30;95898.34;;;13.59;70.25
7834;BME280;3962;42.696;23.354;2022-10-31T07:13:58;95891.13;;;13.69;70.21
7834;BME280;3962;42.696;23.354;2022-10-31T07:16:25;95898.97;;;13.71;70.43
7834;BME280;3962;42.696;23.354;2022-10-31T07:18:52;95893.34;;;13.74;71.01
7834;BME280;3962;42.696;23.354;2022-10-31T07:21:19;95883.94;;;13.87;70.63
7834;BME280;3962;42.696;23.354;2022-10-31T07:23:47;95880.19;;;13.98;69.99
7834;BME280;3962;42.696;23.354;2022-10-31T07:26:14;95878.41;;;14.06;69.44
7834;BME280;3962;42.696;23.354;2022-10-31T07:28:41;95872.31;;;14.14;68.92
7834;BME280;3962;42.696;23.354;2022-10-31T07:31:09;95875.16;;;14.30;68.30
7834;BME280;3962;42.696;23.354;2022-10-31T07:33:36;95880.38;;;14.39;68.65
7834;BME280;3962;42.696;23.354;2022-10-31T07:36:03;95869.78;;;14.55;68.07
7834;BME280;3962;42.696;23.354;2022-10-31T07:38:30;95880.25;;;14.66;67.70
7834;BME280;3962;42.696;23.354;2022-10-31T07:40:57;95885.47;;;14.68;67.35
7834;BME280;3962;42.696;23.354;2022-10-31T07:43:23;95878.31;;;14.76;67.30
7834;BME280;3962;42.696;23.354;2022-10-31T07:45:51;95874.09;;;14.73;67.32
7834;BME280;3962;42.696;23.354;2022-10-31T07:48:20;95874.59;;;14.69;68.05
7834;BME280;3962;42.696;23.354;2022-10-31T07:50:47;95872.97;;;14.76;67.88
7834;BME280;3962;42.696;23.354;2022-10-31T07:53:14;95874.75;;;15.01;67.27
7834;BME280;3962;42.696;23.354;2022-10-31T07:55:42;95877.38;;;15.18;67.13
7834;BME280;3962;42.696;23.354;2022-10-31T07:58:10;95874.38;;;15.29;66.89
7834;BME280;3962;42.696;23.354;2022-10-31T08:00:39;95881.06;;;15.51;66.44
7834;BME280;3962;42.696;23.354;2022-10-31T08:03:07;95881.66;;;15.78;65.18
7834;BME280;3962;42.696;23.354;2022-10-31T08:05:36;95876.97;;;16.92;62.20
7834;BME280;3962;42.696;23.354;2022-10-31T08:08:04;95888.50;;;18.02;58.77
7834;BME280;3962;42.696;23.354;2022-10-31T08:10:32;95883.41;;;19.25;55.59
7834;BME280;3962;42.696;23.354;2022-10-31T08:13:01;95886.38;;;19.74;54.13
7834;BME280;3962;42.696;23.354;2022-10-31T08:15:28;95887.47;;;20.92;51.30
7834;BME280;3962;42.696;23.354;2022-10-31T08:17:55;95881.19;;;21.74;48.67
7834;BME280;3962;42.696;23.354;2022-10-31T08:20:22;95889.78;;;21.91;47.93
7834;BME280;3962;42.696;23.354;2022-10-31T08:22:55;95884.06;;;21.39;48.16
7834;BME280;3962;42.696;23.354;2022-10-31T08:25:23;95882.69;;;21.83;47.83
7834;BME280;3962;42.696;23.354;2022-10-31T08:27:50;95884.06;;;22.13;47.11
7834;BME280;3962;42.696;23.354;2022-10-31T08:30:18;95875.66;;;22.42;46.62
7834;BME280;3962;42.696;23.354;2022-10-31T08:32:45;95880.50;;;22.13;46.83
7834;BME280;3962;42.696;23.354;2022-10-31T08:35:12;95874.91;;;22.21;46.66
7834;BME280;3962;42.696;23.354;2022-10-31T08:37:39;95872.53;;;20.96;49.22
7834;BME280;3962;42.696;23.354;2022-10-31T08:40:08;95871.97;;;21.07;49.20
7834;BME280;3962;42.696;23.354;2022-10-31T08:42:36;95872.03;;;20.44;50.57
7834;BME280;3962;42.696;23.354;2022-10-31T08:45:03;95879.16;;;20.73;50.49
7834;BME280;3962;42.696;23.354;2022-10-31T08:47:30;95871.78;;;21.36;49.02
7834;BME280;3962;42.696;23.354;2022-10-31T08:49:57;95871.06;;;21.96;47.63
7834;BME280;3962;42.696;23.354;2022-10-31T08:52:24;95870.94;;;21.08;48.80
7834;BME280;3962;42.696;23.354;2022-10-31T08:54:51;95872.19;;;21.33;49.17
7834;BME280;3962;42.696;23.354;2022-10-31T08:57:19;95875.34;;;21.77;48.16
7834;BME280;3962;42.696;23.354;2022-10-31T08:59:46;95876.06;;;21.99;47.86
7834;BME280;3962;42.696;23.354;2022-10-31T09:02:13;95873.06;;;21.74;48.03
7834;BME280;3962;42.696;23.354;2022-10-31T09:04:40;95884.75;;;22.28;46.96
7834;BME280;3962;42.696;23.354;2022-10-31T09:07:07;95872.75;;;22.63;46.20
7834;BME280;3962;42.696;23.354;2022-10-31T09:09:33;95871.03;;;22.49;46.40
7834;BME280;3962;42.696;23.354;2022-10-31T09:12:00;95874.47;;;22.17;47.18
7834;BME280;3962;42.696;23.354;2022-10-31T09:14:28;95873.84;;;22.22;47.13
7834;BME280;3962;42.696;23.354;2022-10-31T09:16:55;95864.72;;;22.29;46.85
7834;BME280;3962;42.696;23.354;2022-10-31T09:19:22;95856.16;;;22.19;46.92
7834;BME280;3962;42.696;23.354;2022-10-31T09:21:52;95867.53;;;21.95;47.74
7834;BME280;3962;42.696;23.354;2022-10-31T09:24:18;95865.66;;;22.02;47.67
7834;BME280;3962;42.696;23.354;2022-10-31T09:26:45;95861.69;;;21.98;47.60
7834;BME280;3962;42.696;23.354;2022-10-31T09:29:12;95856.94;;;21.60;48.40
7834;BME280;3962;42.696;23.354;2022-10-31T09:31:40;95857.22;;;21.10;49.90
7834;BME280;3962;42.696;23.354;2022-10-31T09:34:07;95858.59;;;21.61;49.09
7834;BME280;3962;42.696;23.354;2022-10-31T09:36:34;95861.16;;;21.69;48.61
7834;BME280;3962;42.696;23.354;2022-10-31T09:39:01;95861.34;;;21.67;48.75
7834;BME280;3962;42.696;23.354;2022-10-31T09:41:34;95862.91;;;21.55;48.84
7834;BME280;3962;42.696;23.354;2022-10-31T09:44:15;95860.44;;;21.54;48.73
7834;BME280;3962;42.696;23.354;2022-10-31T09:46:57;95846.41;;;21.10;49.57
7834;BME280;3962;42.696;23.354;2022-10-31T09:49:37;95849.41;;;20.94;50.13
7834;BME280;3962;42.696;23.354;2022-10-31T09:52:13;95848.13;;;21.17;49.92
7834;BME280;3962;42.696;23.354;2022-10-31T09:54:47;95839.63;;;21.27;49.68
7834;BME280;3962;42.696;23.354;2022-10-31T09:57:19;95847.00;;;21.05;49.49
7834;BME280;3962;42.696;23.354;2022-10-31T09:59:49;95837.22;;;21.04;49.95
7834;BME280;3962;42.696;23.354;2022-10-31T10:02:21;95840.75;;;21.32;49.77
7834;BME280;3962;42.696;23.354;2022-10-31T10:04:55;95840.03;;;21.58;48.90
7834;BME280;3962;42.696;23.354;2022-10-31T10:07:30;95834.00;;;21.62;48.87
7834;BME280;3962;42.696;23.354;2022-10-31T10:10:05;95825.09;;;21.68;48.48
7834;BME280;3962;42.696;23.354;2022-10-31T10:15:41;95822.72;;;21.59;49.24
7834;BME280;3962;42.696;23.354;2022-10-31T10:18:26;95816.69;;;21.57;48.48
7834;BME280;3962;42.696;23.354;2022-10-31T10:21:06;95818.22;;;21.66;48.32
7834;BME280;3962;42.696;23.354;2022-10-31T10:23:47;95809.59;;;21.96;47.74
7834;BME280;3962;42.696;23.354;2022-10-31T10:26:19;95803.44;;;21.68;48.14
7834;BME280;3962;42.696;23.354;2022-10-31T10:28:49;95802.09;;;21.58;48.42
7834;BME280;3962;42.696;23.354;2022-10-31T10:31:21;95801.16;;;21.65;47.85
7834;BME280;3962;42.696;23.354;2022-10-31T10:34:00;95789.19;;;22.13;47.09
7834;BME280;3962;42.696;23.354;2022-10-31T10:36:33;95805.06;;;22.36;46.76
7834;BME280;3962;42.696;23.354;2022-10-31T10:39:05;95783.59;;;22.15;46.59
7834;BME280;3962;42.696;23.354;2022-10-31T10:41:36;95776.41;;;21.88;46.60
7834;BME280;3962;42.696;23.354;2022-10-31T10:44:08;95780.69;;;22.23;46.25
7834;BME280;3962;42.696;23.354;2022-10-31T10:46:40;95788.88;;;22.42;46.07
7834;BME280;3962;42.696;23.354;2022-10-31T10:49:32;95774.22;;;22.37;46.51
7834;BME280;3962;42.696;23.354;2022-10-31T10:52:08;95775.66;;;22.26;45.69
7834;BME280;3962;42.696;23.354;2022-10-31T10:54:45;95782.50;;;22.09;46.08
7834;BME280;3962;42.696;23.354;2022-10-31T11:00:20;95776.47;;;22.07;46.67
7834;BME280;3962;42.696;23.354;2022-10-31T11:02:47;95777.94;;;22.10;46.47
7834;BME280;3962;42.696;23.354;2022-10-31T11:05:23;95783.19;;;22.31;46.24
7834;BME280;3962;42.696;23.354;2022-10-31T11:07:50;95766.06;;;22.37;45.92
7834;BME280;3962;42.696;23.354;2022-10-31T11:10:17;95767.75;;;22.31;46.08
7834;BME280;3962;42.696;23.354;2022-10-31T11:12:46;95767.13;;;22.29;46.24
7834;BME280;3962;42.696;23.354;2022-10-31T11:15:24;95755.88;;;22.39;45.70
7834;BME280;3962;42.696;23.354;2022-10-31T11:17:54;95754.84;;;22.40;45.64
7834;BME280;3962;42.696;23.354;2022-10-31T11:20:30;95753.75;;;22.28;45.67
7834;BME280;3962;42.696;23.354;2022-10-31T11:23:03;95745.44;;;22.29;45.57
7834;BME280;3962;42.696;23.354;2022-10-31T11:25:30;95748.16;;;22.29;45.33
7834;BME280;3962;42.696;23.354;2022-10-31T11:28:02;95742.06;;;22.21;45.68
7834;BME280;3962;42.696;23.354;2022-10-31T11:30:31;95749.41;;;22.20;46.42
7834;BME280;3962;42.696;23.354;2022-10-31T11:33:02;95737.72;;;22.20;45.83
7834;BME280;3962;42.696;23.354;2022-10-31T11:35:31;95733.78;;;22.42;45.62
7834;BME280;3962;42.696;23.354;2022-10-31T11:37:59;95734.44;;;22.50;44.87
7834;BME280;3962;42.696;23.354;2022-10-31T11:40:27;95734.81;;;22.41;44.84
7834;BME280;3962;42.696;23.354;2022-10-31T11:42:56;95729.00;;;22.50;44.66
7834;BME280;3962;42.696;23.354;2022-10-31T11:45:31;95722.72;;;22.56;44.73
7834;BME280;3962;42.696;23.354;2022-10-31T11:48:00;95729.59;;;22.59;44.38
7834;BME280;3962;42.696;23.354;2022-10-31T11:50:35;95725.84;;;22.73;44.52
7834;BME280;3962;42.696;23.354;2022-10-31T11:53:09;95713.06;;;22.92;43.87
7834;BME280;3962;42.696;23.354;2022-10-31T11:55:39;95715.53;;;23.00;43.32
7834;BME280;3962;42.696;23.354;2022-10-31T11:58:20;95721.84;;;22.95;43.83
7834;BME280;3962;42.696;23.354;2022-10-31T12:00:50;95711.41;;;22.98;43.59
7834;BME280;3962;42.696;23.354;2022-10-31T12:03:29;95713.91;;;22.93;44.08
7834;BME280;3962;42.696;23.354;2022-10-31T12:06:02;95711.16;;;22.99;43.94
7834;BME280;3962;42.696;23.354;2022-10-31T12:08:33;95712.19;;;23.11;43.69
7834;BME280;3962;42.696;23.354;2022-10-31T12:11:08;95704.63;;;23.33;42.81
7834;BME280;3962;42.696;23.354;2022-10-31T12:13:39;95710.00;;;23.39;42.76
7834;BME280;3962;42.696;23.354;2022-10-31T12:16:15;95700.25;;;23.32;42.97
7834;BME280;3962;42.696;23.354;2022-10-31T12:18:55;95709.38;;;23.44;42.38
7834;BME280;3962;42.696;23.354;2022-10-31T12:21:48;95706.56;;;23.63;41.92
7834;BME280;3962;42.696;23.354;2022-10-31T12:24:32;95709.19;;;23.89;41.37
7834;BME280;3962;42.696;23.354;2022-10-31T12:27:13;95701.31;;;24.06;41.12
7834;BME280;3962;42.696;23.354;2022-10-31T12:30:06;95704.78;;;24.19;41.43
7834;BME280;3962;42.696;23.354;2022-10-31T12:32:43;95702.22;;;24.24;41.31
7834;BME280;3962;42.696;23.354;2022-10-31T12:35:23;95702.63;;;24.28;42.00
7834;BME280;3962;42.696;23.354;2022-10-31T12:40:55;95698.63;;;24.61;40.35
7834;BME280;3962;42.696;23.354;2022-10-31T12:43:35;95700.72;;;24.59;40.61
7834;BME280;3962;42.696;23.354;2022-10-31T12:46:07;95690.22;;;24.63;41.48
7834;BME280;3962;42.696;23.354;2022-10-31T12:49:02;95694.44;;;24.59;41.78
7834;BME280;3962;42.696;23.354;2022-10-31T12:51:40;95697.84;;;24.23;41.92
7834;BME280;3962;42.696;23.354;2022-10-31T12:54:19;95698.00;;;24.53;40.94
7834;BME280;3962;42.696;23.354;2022-10-31T12:56:55;95703.06;;;24.49;41.55
7834;BME280;3962;42.696;23.354;2022-10-31T12:59:31;95700.28;;;24.62;41.23
7834;BME280;3962;42.696;23.354;2022-10-31T13:02:02;95700.97;;;24.51;41.01
7834;BME280;3962;42.696;23.354;2022-10-31T13:04:42;95700.47;;;24.61;40.49
7834;BME280;3962;42.696;23.354;2022-10-31T13:07:12;95702.53;;;24.65;40.46
7834;BME280;3962;42.696;23.354;2022-10-31T13:09:53;95697.94;;;24.66;40.72
7834;BME280;3962;42.696;23.354;2022-10-31T13:12:22;95701.66;;;24.47;41.61
7834;BME280;3962;42.696;23.354;2022-10-31T13:14:53;95703.47;;;24.77;40.78
7834;BME280;3962;42.696;23.354;2022-10-31T13:17:27;95697.63;;;24.49;40.89
7834;BME280;3962;42.696;23.354;2022-10-31T13:20:03;95694.53;;;24.95;40.71
7834;BME280;3962;42.696;23.354;2022-10-31T13:22:39;95698.13;;;24.89;40.95
7834;BME280;3962;42.696;23.354;2022-10-31T13:25:14;95703.16;;;24.67;41.66
7834;BME280;3962;42.696;23.354;2022-10-31T13:27:46;95701.59;;;24.53;40.91
7834;BME280;3962;42.696;23.354;2022-10-31T13:30:17;95696.81;;;24.49;40.87
7834;BME280;3962;42.696;23.354;2022-10-31T13:32:48;95692.06;;;24.38;41.01
7834;BME280;3962;42.696;23.354;2022-10-31T13:35:20;95702.16;;;24.62;40.40